sensor_id;sensor_type;location;lat;lon;timestamp;P1;durP1;ratioP1;P2;durP2;ratioP2
21258;SDS011;10787;53.364;-1.480;2022-07-06T00:00:05;9.60;;;2.70;;
21258;SDS011;10787;53.364;-1.480;2022-07-06T00:02:31;8.95;;;2.45;;
21258;SDS011;10787;53.364;-1.480;2022-07-06T00:04:57;7.57;;;2.60;;
21258;SDS011;10787;53.364;-1.480;2022-07-06T00:07:23;5.38;;;2.50;;
21258;SDS011;10787;53.364;-1.480;2022-07-06T00:09:50;5.95;;;2.60;;
21258;SDS011;10787;53.364;-1.480;2022-07-06T00:12:16;8.45;;;3.00;;
21258;SDS011;10787;53.364;-1.480;2022-07-06T00:14:42;8.43;;;2.65;;
21258;SDS011;10787;53.364;-1.480;2022-07-06T00:17:08;7.80;;;2.72;;
21258;SDS011;10787;53.364;-1.480;2022-07-06T00:19:33;8.73;;;2.72;;
21258;SDS011;10787;53.364;-1.480;2022-07-06T00:21:59;5.53;;;2.70;;
21258;SDS011;10787;53.364;-1.480;2022-07-06T00:24:25;8.10;;;2.70;;
21258;SDS011;10787;53.364;-1.480;2022-07-06T00:26:51;8.05;;;2.50;;
21258;SDS011;10787;53.364;-1.480;2022-07-06T00:29:18;6.88;;;2.60;;
21258;SDS011;10787;53.364;-1.480;2022-07-06T00:31:44;6.00;;;2.60;;
21258;SDS011;10787;53.364;-1.480;2022-07-06T00:34:10;5.78;;;2.50;;
21258;SDS011;10787;53.364;-1.480;2022-07-06T00:36:36;8.20;;;2.63;;
21258;SDS011;10787;53.364;-1.480;2022-07-06T00:39:02;3.97;;;2.42;;
21258;SDS011;10787;53.364;-1.480;2022-07-06T00:41:27;5.43;;;2.45;;
21258;SDS011;10787;53.364;-1.480;2022-07-06T00:43:54;5.53;;;2.60;;
21258;SDS011;10787;53.364;-1.480;2022-07-06T00:46:31;5.85;;;2.55;;
21258;SDS011;10787;53.364;-1.480;2022-07-06T00:49:15;4.72;;;2.38;;
21258;SDS011;10787;53.364;-1.480;2022-07-06T00:51:59;5.07;;;2.70;;
21258;SDS011;10787;53.364;-1.480;2022-07-06T00:54:26;4.20;;;2.50;;
21258;SDS011;10787;53.364;-1.480;2022-07-06T00:56:55;5.40;;;2.50;;
21258;SDS011;10787;53.364;-1.480;2022-07-06T00:59:23;5.43;;;2.38;;
21258;SDS011;10787;53.364;-1.480;2022-07-06T01:01:49;3.80;;;2.40;;
21258;SDS011;10787;53.364;-1.480;2022-07-06T01:04:16;3.97;;;2.58;;
21258;SDS011;10787;53.364;-1.480;2022-07-06T01:06:42;3.17;;;2.45;;
21258;SDS011;10787;53.364;-1.480;2022-07-06T01:09:10;4.78;;;2.50;;
21258;SDS011;10787;53.364;-1.480;2022-07-06T01:11:36;3.42;;;2.45;;
21258;SDS011;10787;53.364;-1.480;2022-07-06T01:14:02;3.42;;;2.20;;
21258;SDS011;10787;53.364;-1.480;2022-07-06T01:16:29;4.35;;;2.28;;
21258;SDS011;10787;53.364;-1.480;2022-07-06T01:18:55;3.15;;;2.30;;
21258;SDS011;10787;53.364;-1.480;2022-07-06T01:21:21;6.25;;;2.53;;
21258;SDS011;10787;53.364;-1.480;2022-07-06T01:23:47;3.78;;;2.40;;
21258;SDS011;10787;53.364;-1.480;2022-07-06T01:26:14;2.72;;;2.00;;
21258;SDS011;10787;53.364;-1.480;2022-07-06T01:28:41;3.00;;;2.13;;
21258;SDS011;10787;53.364;-1.480;2022-07-06T01:31:17;2.75;;;2.00;;
21258;SDS011;10787;53.364;-1.480;2022-07-06T01:33:49;3.95;;;2.17;;
21258;SDS011;10787;53.364;-1.480;2022-07-06T01:36:15;3.55;;;2.25;;
21258;SDS011;10787;53.364;-1.480;2022-07-06T01:41:11;2.50;;;2.00;;
21258;SDS011;10787;53.364;-1.480;2022-07-06T01:43:38;2.35;;;2.00;;
21258;SDS011;10787;53.364;-1.480;2022-07-06T01:46:04;1.98;;;1.55;;
21258;SDS011;10787;53.364;-1.480;2022-07-06T01:48:30;1.83;;;1.38;;
21258;SDS011;10787;53.364;-1.480;2022-07-06T01:50:56;1.52;;;1.23;;
21258;SDS011;10787;53.364;-1.480;2022-07-06T01:53:22;2.05;;;1.33;;
21258;SDS011;10787;53.364;-1.480;2022-07-06T01:55:48;2.03;;;1.10;;
21258;SDS011;10787;53.364;-1.480;2022-07-06T01:58:14;1.83;;;1.20;;
21258;SDS011;10787;53.364;-1.480;2022-07-06T02:00:40;2.08;;;0.90;;
21258;SDS011;10787;53.364;-1.480;2022-07-06T02:03:06;1.63;;;1.00;;
21258;SDS011;10787;53.364;-1.480;2022-07-06T02:05:32;1.40;;;1.00;;
21258;SDS011;10787;53.364;-1.480;2022-07-06T02:07:58;1.02;;;0.93;;
21258;SDS011;10787;53.364;-1.480;2022-07-06T02:10:25;0.70;;;0.70;;
21258;SDS011;10787;53.364;-1.480;2022-07-06T02:12:51;1.33;;;0.80;;
21258;SDS011;10787;53.364;-1.480;2022-07-06T02:15:18;0.75;;;0.70;;
21258;SDS011;10787;53.364;-1.480;2022-07-06T02:17:44;1.17;;;0.80;;
21258;SDS011;10787;53.364;-1.480;2022-07-06T02:20:09;0.90;;;0.70;;
21258;SDS011;10787;53.364;-1.480;2022-07-06T02:22:36;0.70;;;0.70;;
21258;SDS011;10787;53.364;-1.480;2022-07-06T02:25:01;0.60;;;0.60;;
21258;SDS011;10787;53.364;-1.480;2022-07-06T02:27:28;0.70;;;0.65;;
21258;SDS011;10787;53.364;-1.480;2022-07-06T02:29:54;0.80;;;0.70;;
21258;SDS011;10787;53.364;-1.480;2022-07-06T02:32:20;0.60;;;0.60;;
21258;SDS011;10787;53.364;-1.480;2022-07-06T02:34:47;1.00;;;0.68;;
21258;SDS011;10787;53.364;-1.480;2022-07-06T02:37:13;0.80;;;0.60;;
21258;SDS011;10787;53.364;-1.480;2022-07-06T02:39:39;0.88;;;0.80;;
21258;SDS011;10787;53.364;-1.480;2022-07-06T02:42:05;0.73;;;0.70;;
21258;SDS011;10787;53.364;-1.480;2022-07-06T02:44:31;1.00;;;0.65;;
21258;SDS011;10787;53.364;-1.480;2022-07-06T02:46:57;0.70;;;0.70;;
21258;SDS011;10787;53.364;-1.480;2022-07-06T02:49:22;0.90;;;0.85;;
21258;SDS011;10787;53.364;-1.480;2022-07-06T02:51:48;1.00;;;0.80;;
21258;SDS011;10787;53.364;-1.480;2022-07-06T02:54:14;1.02;;;0.80;;
21258;SDS011;10787;53.364;-1.480;2022-07-06T02:56:40;1.65;;;0.88;;
21258;SDS011;10787;53.364;-1.480;2022-07-06T02:59:06;1.00;;;0.90;;
21258;SDS011;10787;53.364;-1.480;2022-07-06T03:01:31;1.30;;;1.20;;
21258;SDS011;10787;53.364;-1.480;2022-07-06T03:03:57;2.53;;;1.20;;
21258;SDS011;10787;53.364;-1.480;2022-07-06T03:06:23;1.30;;;1.15;;
21258;SDS011;10787;53.364;-1.480;2022-07-06T03:08:49;1.48;;;1.30;;
21258;SDS011;10787;53.364;-1.480;2022-07-06T03:11:14;3.55;;;1.55;;
21258;SDS011;10787;53.364;-1.480;2022-07-06T03:13:41;1.98;;;1.60;;
21258;SDS011;10787;53.364;-1.480;2022-07-06T03:16:07;2.45;;;2.00;;
21258;SDS011;10787;53.364;-1.480;2022-07-06T03:18:33;2.35;;;2.00;;
21258;SDS011;10787;53.364;-1.480;2022-07-06T03:20:58;5.20;;;2.20;;
21258;SDS011;10787;53.364;-1.480;2022-07-06T03:23:25;2.40;;;2.10;;
21258;SDS011;10787;53.364;-1.480;2022-07-06T03:25:51;2.45;;;2.15;;
21258;SDS011;10787;53.364;-1.480;2022-07-06T03:28:17;2.97;;;2.35;;
21258;SDS011;10787;53.364;-1.480;2022-07-06T03:30:42;2.38;;;2.13;;
21258;SDS011;10787;53.364;-1.480;2022-07-06T03:33:08;2.45;;;2.10;;
21258;SDS011;10787;53.364;-1.480;2022-07-06T03:35:34;2.90;;;2.45;;
21258;SDS011;10787;53.364;-1.480;2022-07-06T03:38:00;3.88;;;3.03;;
21258;SDS011;10787;53.364;-1.480;2022-07-06T03:40:27;3.13;;;2.72;;
21258;SDS011;10787;53.364;-1.480;2022-07-06T03:42:53;3.47;;;3.05;;
21258;SDS011;10787;53.364;-1.480;2022-07-06T03:45:19;5.10;;;4.10;;
21258;SDS011;10787;53.364;-1.480;2022-07-06T03:47:45;4.45;;;4.03;;
21258;SDS011;10787;53.364;-1.480;2022-07-06T03:50:11;5.22;;;4.40;;
21258;SDS011;10787;53.364;-1.480;2022-07-06T03:52:36;6.05;;;5.07;;
21258;SDS011;10787;53.364;-1.480;2022-07-06T03:55:07;5.95;;;4.78;;
21258;SDS011;10787;53.364;-1.480;2022-07-06T03:57:35;6.00;;;5.35;;
21258;SDS011;10787;53.364;-1.480;2022-07-06T04:00:01;8.98;;;5.53;;
21258;SDS011;10787;53.364;-1.480;2022-07-06T04:02:31;7.60;;;5.75;;
21258;SDS011;10787;53.364;-1.480;2022-07-06T04:05:03;6.15;;;5.47;;
21258;SDS011;10787;53.364;-1.480;2022-07-06T04:07:33;7.10;;;5.20;;
21258;SDS011;10787;53.364;-1.480;2022-07-06T04:10:04;6.43;;;5.13;;
21258;SDS011;10787;53.364;-1.480;2022-07-06T04:12:30;6.28;;;5.45;;
21258;SDS011;10787;53.364;-1.480;2022-07-06T04:14:57;8.10;;;6.15;;
21258;SDS011;10787;53.364;-1.480;2022-07-06T04:17:23;6.38;;;5.53;;
21258;SDS011;10787;53.364;-1.480;2022-07-06T04:20:08;6.65;;;5.50;;
21258;SDS011;10787;53.364;-1.480;2022-07-06T04:22:40;7.03;;;5.65;;
21258;SDS011;10787;53.364;-1.480;2022-07-06T04:25:06;6.60;;;5.45;;
21258;SDS011;10787;53.364;-1.480;2022-07-06T04:27:33;6.93;;;5.45;;
21258;SDS011;10787;53.364;-1.480;2022-07-06T04:29:59;5.80;;;5.10;;
21258;SDS011;10787;53.364;-1.480;2022-07-06T04:32:25;6.57;;;5.45;;
21258;SDS011;10787;53.364;-1.480;2022-07-06T04:34:51;5.68;;;5.05;;
21258;SDS011;10787;53.364;-1.480;2022-07-06T04:37:17;7.32;;;5.40;;
21258;SDS011;10787;53.364;-1.480;2022-07-06T04:39:43;6.15;;;5.47;;
21258;SDS011;10787;53.364;-1.480;2022-07-06T04:42:09;6.03;;;5.43;;
21258;SDS011;10787;53.364;-1.480;2022-07-06T04:44:35;8.75;;;5.60;;
21258;SDS011;10787;53.364;-1.480;2022-07-06T04:47:01;5.88;;;4.88;;
21258;SDS011;10787;53.364;-1.480;2022-07-06T04:49:27;6.65;;;5.25;;
21258;SDS011;10787;53.364;-1.480;2022-07-06T04:51:53;6.13;;;4.75;;
21258;SDS011;10787;53.364;-1.480;2022-07-06T04:54:19;5.78;;;4.43;;
21258;SDS011;10787;53.364;-1.480;2022-07-06T04:56:45;5.32;;;4.82;;
21258;SDS011;10787;53.364;-1.480;2022-07-06T04:59:12;5.78;;;4.72;;
21258;SDS011;10787;53.364;-1.480;2022-07-06T05:01:37;6.00;;;4.30;;
21258;SDS011;10787;53.364;-1.480;2022-07-06T05:04:03;6.45;;;4.55;;
21258;SDS011;10787;53.364;-1.480;2022-07-06T05:06:30;5.47;;;4.65;;
21258;SDS011;10787;53.364;-1.480;2022-07-06T05:08:56;7.07;;;4.10;;
21258;SDS011;10787;53.364;-1.480;2022-07-06T05:11:25;5.57;;;4.50;;
21258;SDS011;10787;53.364;-1.480;2022-07-06T05:13:52;6.82;;;4.20;;
21258;SDS011;10787;53.364;-1.480;2022-07-06T05:16:18;5.68;;;4.10;;
21258;SDS011;10787;53.364;-1.480;2022-07-06T05:18:44;4.35;;;3.72;;
21258;SDS011;10787;53.364;-1.480;2022-07-06T05:21:10;6.30;;;4.15;;
21258;SDS011;10787;53.364;-1.480;2022-07-06T05:23:36;7.28;;;3.83;;
21258;SDS011;10787;53.364;-1.480;2022-07-06T05:26:02;7.95;;;3.85;;
21258;SDS011;10787;53.364;-1.480;2022-07-06T05:28:28;4.13;;;3.53;;
21258;SDS011;10787;53.364;-1.480;2022-07-06T05:30:54;6.95;;;3.83;;
21258;SDS011;10787;53.364;-1.480;2022-07-06T05:33:20;5.32;;;3.28;;
21258;SDS011;10787;53.364;-1.480;2022-07-06T05:35:46;5.60;;;3.60;;
21258;SDS011;10787;53.364;-1.480;2022-07-06T05:38:12;4.97;;;3.25;;
21258;SDS011;10787;53.364;-1.480;2022-07-06T05:40:40;5.53;;;3.30;;
21258;SDS011;10787;53.364;-1.480;2022-07-06T05:43:06;3.47;;;2.90;;
21258;SDS011;10787;53.364;-1.480;2022-07-06T05:45:32;6.03;;;3.30;;
21258;SDS011;10787;53.364;-1.480;2022-07-06T05:47:59;4.35;;;3.10;;
21258;SDS011;10787;53.364;-1.480;2022-07-06T05:50:44;6.88;;;3.10;;
21258;SDS011;10787;53.364;-1.480;2022-07-06T05:53:09;5.10;;;2.70;;
21258;SDS011;10787;53.364;-1.480;2022-07-06T05:55:35;5.03;;;3.50;;
21258;SDS011;10787;53.364;-1.480;2022-07-06T05:58:01;5.70;;;3.40;;
21258;SDS011;10787;53.364;-1.480;2022-07-06T06:00:27;3.85;;;2.80;;
21258;SDS011;10787;53.364;-1.480;2022-07-06T06:02:54;4.68;;;3.03;;
21258;SDS011;10787;53.364;-1.480;2022-07-06T06:05:19;3.33;;;2.60;;
21258;SDS011;10787;53.364;-1.480;2022-07-06T06:07:46;2.80;;;2.42;;
21258;SDS011;10787;53.364;-1.480;2022-07-06T06:10:14;2.00;;;1.70;;
21258;SDS011;10787;53.364;-1.480;2022-07-06T06:12:40;2.95;;;2.00;;
21258;SDS011;10787;53.364;-1.480;2022-07-06T06:15:07;1.90;;;1.30;;
21258;SDS011;10787;53.364;-1.480;2022-07-06T06:17:34;2.33;;;1.38;;
21258;SDS011;10787;53.364;-1.480;2022-07-06T06:20:01;2.90;;;1.25;;
21258;SDS011;10787;53.364;-1.480;2022-07-06T06:22:27;1.70;;;1.27;;
21258;SDS011;10787;53.364;-1.480;2022-07-06T06:24:52;3.95;;;1.30;;
21258;SDS011;10787;53.364;-1.480;2022-07-06T06:27:18;2.75;;;1.70;;
21258;SDS011;10787;53.364;-1.480;2022-07-06T06:29:44;1.55;;;1.35;;
21258;SDS011;10787;53.364;-1.480;2022-07-06T06:32:11;2.75;;;1.40;;
21258;SDS011;10787;53.364;-1.480;2022-07-06T06:34:37;2.78;;;1.38;;
21258;SDS011;10787;53.364;-1.480;2022-07-06T06:37:03;3.00;;;1.48;;
21258;SDS011;10787;53.364;-1.480;2022-07-06T06:39:29;2.83;;;1.67;;
21258;SDS011;10787;53.364;-1.480;2022-07-06T06:41:55;4.10;;;1.65;;
21258;SDS011;10787;53.364;-1.480;2022-07-06T06:44:21;5.80;;;1.40;;
21258;SDS011;10787;53.364;-1.480;2022-07-06T06:46:50;2.10;;;1.50;;
21258;SDS011;10787;53.364;-1.480;2022-07-06T06:49:19;4.47;;;1.40;;
21258;SDS011;10787;53.364;-1.480;2022-07-06T06:51:45;3.55;;;1.70;;
21258;SDS011;10787;53.364;-1.480;2022-07-06T06:54:11;3.40;;;1.67;;
21258;SDS011;10787;53.364;-1.480;2022-07-06T06:56:37;4.18;;;1.90;;
21258;SDS011;10787;53.364;-1.480;2022-07-06T06:59:02;4.55;;;1.92;;
21258;SDS011;10787;53.364;-1.480;2022-07-06T07:01:28;5.70;;;1.70;;
21258;SDS011;10787;53.364;-1.480;2022-07-06T07:03:54;5.95;;;2.30;;
21258;SDS011;10787;53.364;-1.480;2022-07-06T07:06:20;4.13;;;2.20;;
21258;SDS011;10787;53.364;-1.480;2022-07-06T07:08:47;4.43;;;2.53;;
21258;SDS011;10787;53.364;-1.480;2022-07-06T07:11:13;4.05;;;2.45;;
21258;SDS011;10787;53.364;-1.480;2022-07-06T07:13:40;3.65;;;2.20;;
21258;SDS011;10787;53.364;-1.480;2022-07-06T07:16:06;3.42;;;2.20;;
21258;SDS011;10787;53.364;-1.480;2022-07-06T07:18:32;2.85;;;1.90;;
21258;SDS011;10787;53.364;-1.480;2022-07-06T07:20:58;3.78;;;1.98;;
21258;SDS011;10787;53.364;-1.480;2022-07-06T07:23:24;3.22;;;1.83;;
21258;SDS011;10787;53.364;-1.480;2022-07-06T07:25:50;1.98;;;1.70;;
21258;SDS011;10787;53.364;-1.480;2022-07-06T07:28:16;2.63;;;1.48;;
21258;SDS011;10787;53.364;-1.480;2022-07-06T07:30:42;3.15;;;1.60;;
21258;SDS011;10787;53.364;-1.480;2022-07-06T07:33:08;1.58;;;1.30;;
21258;SDS011;10787;53.364;-1.480;2022-07-06T07:35:34;2.30;;;1.50;;
21258;SDS011;10787;53.364;-1.480;2022-07-06T07:38:02;3.03;;;1.20;;
21258;SDS011;10787;53.364;-1.480;2022-07-06T07:40:27;2.42;;;1.33;;
21258;SDS011;10787;53.364;-1.480;2022-07-06T07:42:55;2.08;;;1.30;;
21258;SDS011;10787;53.364;-1.480;2022-07-06T07:45:21;1.83;;;1.23;;
21258;SDS011;10787;53.364;-1.480;2022-07-06T07:47:47;1.48;;;1.25;;
21258;SDS011;10787;53.364;-1.480;2022-07-06T07:50:13;2.15;;;1.20;;
21258;SDS011;10787;53.364;-1.480;2022-07-06T07:52:41;1.20;;;1.10;;
21258;SDS011;10787;53.364;-1.480;2022-07-06T07:55:07;1.40;;;1.00;;
21258;SDS011;10787;53.364;-1.480;2022-07-06T07:57:33;2.30;;;1.20;;
21258;SDS011;10787;53.364;-1.480;2022-07-06T07:59:59;1.08;;;0.98;;
21258;SDS011;10787;53.364;-1.480;2022-07-06T08:02:24;1.00;;;0.90;;
21258;SDS011;10787;53.364;-1.480;2022-07-06T08:04:50;0.88;;;0.80;;
21258;SDS011;10787;53.364;-1.480;2022-07-06T08:07:16;2.58;;;1.10;;
21258;SDS011;10787;53.364;-1.480;2022-07-06T08:09:42;2.63;;;0.93;;
21258;SDS011;10787;53.364;-1.480;2022-07-06T08:12:07;1.23;;;0.70;;
21258;SDS011;10787;53.364;-1.480;2022-07-06T08:14:34;1.25;;;0.70;;
21258;SDS011;10787;53.364;-1.480;2022-07-06T08:16:59;0.80;;;0.80;;
21258;SDS011;10787;53.364;-1.480;2022-07-06T08:19:25;0.90;;;0.80;;
21258;SDS011;10787;53.364;-1.480;2022-07-06T08:21:52;2.38;;;0.90;;
21258;SDS011;10787;53.364;-1.480;2022-07-06T08:24:17;1.83;;;0.95;;
21258;SDS011;10787;53.364;-1.480;2022-07-06T08:26:43;2.80;;;0.85;;
21258;SDS011;10787;53.364;-1.480;2022-07-06T08:29:09;1.67;;;0.90;;
21258;SDS011;10787;53.364;-1.480;2022-07-06T08:31:35;3.58;;;1.13;;
21258;SDS011;10787;53.364;-1.480;2022-07-06T08:34:01;1.58;;;1.00;;
21258;SDS011;10787;53.364;-1.480;2022-07-06T08:36:28;1.40;;;1.00;;
21258;SDS011;10787;53.364;-1.480;2022-07-06T08:38:54;1.15;;;0.90;;
21258;SDS011;10787;53.364;-1.480;2022-07-06T08:41:21;1.63;;;0.90;;
21258;SDS011;10787;53.364;-1.480;2022-07-06T08:43:49;2.20;;;1.20;;
21258;SDS011;10787;53.364;-1.480;2022-07-06T08:46:15;1.92;;;1.00;;
21258;SDS011;10787;53.364;-1.480;2022-07-06T08:48:41;1.70;;;1.08;;
21258;SDS011;10787;53.364;-1.480;2022-07-06T08:51:08;1.10;;;0.80;;
21258;SDS011;10787;53.364;-1.480;2022-07-06T08:53:34;1.27;;;0.90;;
21258;SDS011;10787;53.364;-1.480;2022-07-06T08:56:01;0.98;;;0.90;;
21258;SDS011;10787;53.364;-1.480;2022-07-06T08:58:27;1.33;;;0.60;;
21258;SDS011;10787;53.364;-1.480;2022-07-06T09:00:56;0.50;;;0.50;;
21258;SDS011;10787;53.364;-1.480;2022-07-06T09:03:25;0.52;;;0.52;;
21258;SDS011;10787;53.364;-1.480;2022-07-06T09:05:57;0.90;;;0.70;;
21258;SDS011;10787;53.364;-1.480;2022-07-06T09:08:29;0.80;;;0.70;;
21258;SDS011;10787;53.364;-1.480;2022-07-06T09:10:57;0.80;;;0.77;;
21258;SDS011;10787;53.364;-1.480;2022-07-06T09:13:23;0.70;;;0.70;;
21258;SDS011;10787;53.364;-1.480;2022-07-06T09:15:49;1.13;;;0.88;;
21258;SDS011;10787;53.364;-1.480;2022-07-06T09:18:15;0.90;;;0.80;;
21258;SDS011;10787;53.364;-1.480;2022-07-06T09:20:41;0.70;;;0.70;;
21258;SDS011;10787;53.364;-1.480;2022-07-06T09:23:07;1.13;;;0.60;;
21258;SDS011;10787;53.364;-1.480;2022-07-06T09:25:34;1.40;;;0.65;;
21258;SDS011;10787;53.364;-1.480;2022-07-06T09:28:01;0.70;;;0.60;;
21258;SDS011;10787;53.364;-1.480;2022-07-06T09:30:28;2.33;;;0.80;;
21258;SDS011;10787;53.364;-1.480;2022-07-06T09:32:55;1.23;;;0.80;;
21258;SDS011;10787;53.364;-1.480;2022-07-06T09:38:00;1.95;;;1.30;;
21258;SDS011;10787;53.364;-1.480;2022-07-06T09:40:29;2.17;;;1.50;;
21258;SDS011;10787;53.364;-1.480;2022-07-06T09:43:13;1.80;;;1.60;;
21258;SDS011;10787;53.364;-1.480;2022-07-06T09:45:40;1.92;;;1.65;;
21258;SDS011;10787;53.364;-1.480;2022-07-06T09:48:10;2.05;;;1.88;;
21258;SDS011;10787;53.364;-1.480;2022-07-06T09:50:40;2.17;;;1.50;;
21258;SDS011;10787;53.364;-1.480;2022-07-06T09:53:12;3.08;;;1.42;;
21258;SDS011;10787;53.364;-1.480;2022-07-06T09:55:49;2.35;;;1.10;;
21258;SDS011;10787;53.364;-1.480;2022-07-06T09:58:16;2.30;;;1.30;;
21258;SDS011;10787;53.364;-1.480;2022-07-06T10:00:44;1.10;;;1.00;;
21258;SDS011;10787;53.364;-1.480;2022-07-06T10:03:11;1.60;;;1.20;;
21258;SDS011;10787;53.364;-1.480;2022-07-06T10:05:38;1.20;;;1.10;;
21258;SDS011;10787;53.364;-1.480;2022-07-06T10:08:11;1.25;;;0.98;;
21258;SDS011;10787;53.364;-1.480;2022-07-06T10:10:38;1.00;;;0.77;;
21258;SDS011;10787;53.364;-1.480;2022-07-06T10:13:05;1.35;;;0.80;;
21258;SDS011;10787;53.364;-1.480;2022-07-06T10:15:32;2.72;;;1.00;;
21258;SDS011;10787;53.364;-1.480;2022-07-06T10:18:00;1.17;;;0.85;;
21258;SDS011;10787;53.364;-1.480;2022-07-06T10:20:31;2.90;;;1.20;;
21258;SDS011;10787;53.364;-1.480;2022-07-06T10:23:02;1.98;;;1.10;;
21258;SDS011;10787;53.364;-1.480;2022-07-06T10:25:30;1.95;;;1.00;;
21258;SDS011;10787;53.364;-1.480;2022-07-06T10:27:58;1.83;;;0.80;;
21258;SDS011;10787;53.364;-1.480;2022-07-06T10:30:24;1.77;;;0.90;;
21258;SDS011;10787;53.364;-1.480;2022-07-06T10:32:52;2.17;;;0.90;;
21258;SDS011;10787;53.364;-1.480;2022-07-06T10:35:20;1.63;;;0.80;;
21258;SDS011;10787;53.364;-1.480;2022-07-06T10:38:03;2.15;;;0.80;;
21258;SDS011;10787;53.364;-1.480;2022-07-06T10:40:39;1.00;;;0.80;;
21258;SDS011;10787;53.364;-1.480;2022-07-06T10:43:34;1.55;;;1.17;;
21258;SDS011;10787;53.364;-1.480;2022-07-06T10:46:05;1.90;;;0.90;;
21258;SDS011;10787;53.364;-1.480;2022-07-06T10:48:46;1.95;;;1.05;;
21258;SDS011;10787;53.364;-1.480;2022-07-06T10:51:14;2.45;;;0.90;;
21258;SDS011;10787;53.364;-1.480;2022-07-06T10:53:56;1.77;;;0.95;;
21258;SDS011;10787;53.364;-1.480;2022-07-06T10:56:37;1.45;;;0.93;;
21258;SDS011;10787;53.364;-1.480;2022-07-06T10:59:11;1.83;;;0.80;;
21258;SDS011;10787;53.364;-1.480;2022-07-06T11:01:39;1.90;;;1.00;;
21258;SDS011;10787;53.364;-1.480;2022-07-06T11:06:32;1.85;;;0.90;;
21258;SDS011;10787;53.364;-1.480;2022-07-06T11:09:03;2.15;;;1.00;;
21258;SDS011;10787;53.364;-1.480;2022-07-06T11:14:01;1.17;;;1.00;;
21258;SDS011;10787;53.364;-1.480;2022-07-06T11:16:37;3.40;;;1.08;;
21258;SDS011;10787;53.364;-1.480;2022-07-06T11:19:26;2.97;;;1.20;;
21258;SDS011;10787;53.364;-1.480;2022-07-06T11:21:54;1.60;;;1.00;;
21258;SDS011;10787;53.364;-1.480;2022-07-06T11:24:34;2.17;;;1.30;;
21258;SDS011;10787;53.364;-1.480;2022-07-06T11:27:02;3.75;;;1.20;;
21258;SDS011;10787;53.364;-1.480;2022-07-06T11:29:28;3.25;;;1.30;;
21258;SDS011;10787;53.364;-1.480;2022-07-06T11:31:56;4.53;;;1.48;;
21258;SDS011;10787;53.364;-1.480;2022-07-06T11:34:26;4.25;;;1.40;;
21258;SDS011;10787;53.364;-1.480;2022-07-06T11:37:04;1.90;;;1.30;;
21258;SDS011;10787;53.364;-1.480;2022-07-06T11:39:33;4.00;;;1.50;;
21258;SDS011;10787;53.364;-1.480;2022-07-06T11:42:00;2.50;;;1.27;;
21258;SDS011;10787;53.364;-1.480;2022-07-06T11:44:29;2.00;;;1.20;;
21258;SDS011;10787;53.364;-1.480;2022-07-06T11:46:55;1.88;;;1.00;;
21258;SDS011;10787;53.364;-1.480;2022-07-06T11:49:26;1.83;;;1.02;;
21258;SDS011;10787;53.364;-1.480;2022-07-06T11:51:52;4.47;;;1.15;;
21258;SDS011;10787;53.364;-1.480;2022-07-06T11:54:19;3.10;;;1.35;;
21258;SDS011;10787;53.364;-1.480;2022-07-06T11:56:50;4.20;;;1.50;;
21258;SDS011;10787;53.364;-1.480;2022-07-06T12:02:05;3.05;;;1.40;;
21258;SDS011;10787;53.364;-1.480;2022-07-06T12:04:36;6.82;;;1.50;;
21258;SDS011;10787;53.364;-1.480;2022-07-06T12:07:04;3.75;;;1.33;;
21258;SDS011;10787;53.364;-1.480;2022-07-06T12:09:39;3.60;;;1.40;;
21258;SDS011;10787;53.364;-1.480;2022-07-06T12:12:06;3.58;;;1.38;;
21258;SDS011;10787;53.364;-1.480;2022-07-06T12:14:34;2.10;;;1.50;;
21258;SDS011;10787;53.364;-1.480;2022-07-06T12:17:05;3.97;;;1.70;;
21258;SDS011;10787;53.364;-1.480;2022-07-06T12:19:32;4.10;;;1.60;;
21258;SDS011;10787;53.364;-1.480;2022-07-06T12:21:59;3.53;;;1.63;;
21258;SDS011;10787;53.364;-1.480;2022-07-06T12:24:27;5.43;;;1.60;;
21258;SDS011;10787;53.364;-1.480;2022-07-06T12:26:59;3.60;;;1.60;;
21258;SDS011;10787;53.364;-1.480;2022-07-06T12:29:39;3.35;;;1.60;;
21258;SDS011;10787;53.364;-1.480;2022-07-06T12:32:05;3.13;;;1.27;;
21258;SDS011;10787;53.364;-1.480;2022-07-06T12:34:31;3.83;;;1.80;;
21258;SDS011;10787;53.364;-1.480;2022-07-06T12:37:02;2.92;;;1.40;;
21258;SDS011;10787;53.364;-1.480;2022-07-06T12:39:32;3.15;;;1.48;;
21258;SDS011;10787;53.364;-1.480;2022-07-06T12:42:16;67.75;;;6.80;;
21258;SDS011;10787;53.364;-1.480;2022-07-06T12:45:01;10.60;;;1.70;;
21258;SDS011;10787;53.364;-1.480;2022-07-06T12:47:27;4.40;;;1.50;;
21258;SDS011;10787;53.364;-1.480;2022-07-06T12:50:06;122.38;;;11.90;;
21258;SDS011;10787;53.364;-1.480;2022-07-06T12:52:34;6.07;;;1.90;;
21258;SDS011;10787;53.364;-1.480;2022-07-06T12:55:01;5.35;;;1.40;;
21258;SDS011;10787;53.364;-1.480;2022-07-06T12:57:41;4.88;;;1.50;;
21258;SDS011;10787;53.364;-1.480;2022-07-06T13:00:14;3.75;;;1.45;;
21258;SDS011;10787;53.364;-1.480;2022-07-06T13:02:43;3.15;;;1.30;;
21258;SDS011;10787;53.364;-1.480;2022-07-06T13:05:11;2.90;;;1.45;;
21258;SDS011;10787;53.364;-1.480;2022-07-06T13:07:42;3.72;;;1.42;;
21258;SDS011;10787;53.364;-1.480;2022-07-06T13:10:11;4.05;;;1.60;;
21258;SDS011;10787;53.364;-1.480;2022-07-06T13:12:37;6.35;;;2.42;;
21258;SDS011;10787;53.364;-1.480;2022-07-06T13:15:05;3.20;;;1.35;;
21258;SDS011;10787;53.364;-1.480;2022-07-06T13:17:33;3.00;;;1.40;;
21258;SDS011;10787;53.364;-1.480;2022-07-06T13:19:59;3.58;;;1.40;;
21258;SDS011;10787;53.364;-1.480;2022-07-06T13:22:26;2.67;;;1.38;;
21258;SDS011;10787;53.364;-1.480;2022-07-06T13:24:52;2.20;;;1.20;;
21258;SDS011;10787;53.364;-1.480;2022-07-06T13:27:18;4.03;;;1.30;;
21258;SDS011;10787;53.364;-1.480;2022-07-06T13:29:44;3.55;;;1.35;;
21258;SDS011;10787;53.364;-1.480;2022-07-06T13:32:09;2.50;;;1.20;;
21258;SDS011;10787;53.364;-1.480;2022-07-06T13:34:35;3.08;;;1.20;;
21258;SDS011;10787;53.364;-1.480;2022-07-06T13:37:02;3.10;;;1.10;;
21258;SDS011;10787;53.364;-1.480;2022-07-06T13:39:29;2.72;;;1.15;;
21258;SDS011;10787;53.364;-1.480;2022-07-06T13:41:55;2.65;;;1.20;;
21258;SDS011;10787;53.364;-1.480;2022-07-06T13:44:21;3.08;;;1.40;;
21258;SDS011;10787;53.364;-1.480;2022-07-06T13:46:47;3.45;;;1.05;;
21258;SDS011;10787;53.364;-1.480;2022-07-06T13:49:12;1.77;;;1.02;;
21258;SDS011;10787;53.364;-1.480;2022-07-06T13:51:38;2.40;;;1.20;;
21258;SDS011;10787;53.364;-1.480;2022-07-06T13:54:05;3.20;;;1.40;;
21258;SDS011;10787;53.364;-1.480;2022-07-06T13:56:31;1.65;;;1.20;;
21258;SDS011;10787;53.364;-1.480;2022-07-06T13:58:57;3.05;;;1.10;;
21258;SDS011;10787;53.364;-1.480;2022-07-06T14:01:23;3.50;;;1.30;;
21258;SDS011;10787;53.364;-1.480;2022-07-06T14:03:49;3.70;;;1.20;;
21258;SDS011;10787;53.364;-1.480;2022-07-06T14:06:15;1.83;;;1.17;;
21258;SDS011;10787;53.364;-1.480;2022-07-06T14:08:41;2.67;;;0.93;;
21258;SDS011;10787;53.364;-1.480;2022-07-06T14:11:08;2.08;;;1.00;;
21258;SDS011;10787;53.364;-1.480;2022-07-06T14:13:34;2.03;;;1.30;;
21258;SDS011;10787;53.364;-1.480;2022-07-06T14:16:01;3.20;;;1.10;;
21258;SDS011;10787;53.364;-1.480;2022-07-06T14:18:27;3.70;;;1.25;;
21258;SDS011;10787;53.364;-1.480;2022-07-06T14:20:53;2.60;;;1.10;;
21258;SDS011;10787;53.364;-1.480;2022-07-06T14:23:20;3.70;;;1.20;;
21258;SDS011;10787;53.364;-1.480;2022-07-06T14:25:47;3.03;;;1.25;;
21258;SDS011;10787;53.364;-1.480;2022-07-06T14:28:14;2.38;;;1.40;;
21258;SDS011;10787;53.364;-1.480;2022-07-06T14:30:40;3.08;;;1.23;;
21258;SDS011;10787;53.364;-1.480;2022-07-06T14:33:08;3.33;;;1.40;;
21258;SDS011;10787;53.364;-1.480;2022-07-06T14:35:34;2.65;;;1.13;;
21258;SDS011;10787;53.364;-1.480;2022-07-06T14:38:02;2.53;;;1.10;;
21258;SDS011;10787;53.364;-1.480;2022-07-06T14:40:29;2.03;;;1.00;;
21258;SDS011;10787;53.364;-1.480;2022-07-06T14:42:56;2.03;;;1.13;;
21258;SDS011;10787;53.364;-1.480;2022-07-06T14:45:22;1.25;;;1.00;;
21258;SDS011;10787;53.364;-1.480;2022-07-06T14:47:49;2.03;;;1.10;;